sensor_id;sensor_type;location;lat;lon;timestamp;P1;durP1;ratioP1;P2;durP2;ratioP2
9970;SDS011;5026;51.494;11.974;2023-05-07T00:01:08;21.17;;;13.30;;
9970;SDS011;5026;51.494;11.974;2023-05-07T00:03:36;23.00;;;14.43;;
9970;SDS011;5026;51.494;11.974;2023-05-07T00:06:03;27.13;;;15.50;;
9970;SDS011;5026;51.494;11.974;2023-05-07T00:08:30;23.93;;;14.07;;
9970;SDS011;5026;51.494;11.974;2023-05-07T00:10:57;27.27;;;14.90;;
9970;SDS011;5026;51.494;11.974;2023-05-07T00:13:24;36.43;;;16.67;;
9970;SDS011;5026;51.494;11.974;2023-05-07T00:15:52;24.90;;;14.57;;
9970;SDS011;5026;51.494;11.974;2023-05-07T00:18:19;26.43;;;14.70;;
9970;SDS011;5026;51.494;11.974;2023-05-07T00:20:47;24.20;;;14.93;;
9970;SDS011;5026;51.494;11.974;2023-05-07T00:23:14;24.10;;;13.20;;
9970;SDS011;5026;51.494;11.974;2023-05-07T00:25:41;24.73;;;13.97;;
9970;SDS011;5026;51.494;11.974;2023-05-07T00:28:08;25.10;;;14.20;;
9970;SDS011;5026;51.494;11.974;2023-05-07T00:30:35;20.33;;;12.40;;
9970;SDS011;5026;51.494;11.974;2023-05-07T00:33:03;23.43;;;13.33;;
9970;SDS011;5026;51.494;11.974;2023-05-07T00:35:30;19.47;;;11.80;;
9970;SDS011;5026;51.494;11.974;2023-05-07T00:37:57;17.03;;;11.53;;
9970;SDS011;5026;51.494;11.974;2023-05-07T00:40:24;16.17;;;10.43;;
9970;SDS011;5026;51.494;11.974;2023-05-07T00:42:51;16.90;;;10.63;;
9970;SDS011;5026;51.494;11.974;2023-05-07T00:45:23;17.60;;;11.37;;
9970;SDS011;5026;51.494;11.974;2023-05-07T00:47:53;18.70;;;10.33;;
9970;SDS011;5026;51.494;11.974;2023-05-07T00:50:22;19.23;;;11.13;;
9970;SDS011;5026;51.494;11.974;2023-05-07T00:52:50;19.67;;;11.80;;
9970;SDS011;5026;51.494;11.974;2023-05-07T00:55:17;14.53;;;10.10;;
9970;SDS011;5026;51.494;11.974;2023-05-07T00:57:45;20.93;;;12.97;;
9970;SDS011;5026;51.494;11.974;2023-05-07T01:00:12;20.30;;;12.30;;
9970;SDS011;5026;51.494;11.974;2023-05-07T01:02:39;19.47;;;12.27;;
9970;SDS011;5026;51.494;11.974;2023-05-07T01:05:07;16.43;;;12.10;;
9970;SDS011;5026;51.494;11.974;2023-05-07T01:07:37;19.03;;;11.77;;
9970;SDS011;5026;51.494;11.974;2023-05-07T01:10:06;16.13;;;10.90;;
9970;SDS011;5026;51.494;11.974;2023-05-07T01:12:34;16.67;;;11.30;;
9970;SDS011;5026;51.494;11.974;2023-05-07T01:15:03;15.80;;;10.93;;
9970;SDS011;5026;51.494;11.974;2023-05-07T01:17:32;15.73;;;11.10;;
9970;SDS011;5026;51.494;11.974;2023-05-07T01:20:00;14.93;;;10.47;;
9970;SDS011;5026;51.494;11.974;2023-05-07T01:22:31;16.60;;;11.83;;
9970;SDS011;5026;51.494;11.974;2023-05-07T01:24:59;17.07;;;11.30;;
9970;SDS011;5026;51.494;11.974;2023-05-07T01:27:27;16.47;;;11.43;;
9970;SDS011;5026;51.494;11.974;2023-05-07T01:29:54;14.40;;;10.47;;
9970;SDS011;5026;51.494;11.974;2023-05-07T01:32:23;17.40;;;11.27;;
9970;SDS011;5026;51.494;11.974;2023-05-07T01:34:54;17.43;;;11.87;;
9970;SDS011;5026;51.494;11.974;2023-05-07T01:37:23;16.73;;;10.30;;
9970;SDS011;5026;51.494;11.974;2023-05-07T01:39:53;17.27;;;11.83;;
9970;SDS011;5026;51.494;11.974;2023-05-07T01:42:20;16.97;;;11.40;;
9970;SDS011;5026;51.494;11.974;2023-05-07T01:44:48;14.97;;;10.40;;
9970;SDS011;5026;51.494;11.974;2023-05-07T01:47:15;15.47;;;11.00;;
9970;SDS011;5026;51.494;11.974;2023-05-07T01:49:43;16.93;;;11.40;;
9970;SDS011;5026;51.494;11.974;2023-05-07T01:52:10;17.27;;;11.00;;
9970;SDS011;5026;51.494;11.974;2023-05-07T01:54:37;16.57;;;10.63;;
9970;SDS011;5026;51.494;11.974;2023-05-07T01:57:06;18.13;;;10.50;;
9970;SDS011;5026;51.494;11.974;2023-05-07T01:59:33;16.77;;;10.20;;
9970;SDS011;5026;51.494;11.974;2023-05-07T02:02:00;17.97;;;11.03;;
9970;SDS011;5026;51.494;11.974;2023-05-07T02:04:27;19.10;;;11.27;;
9970;SDS011;5026;51.494;11.974;2023-05-07T02:06:54;15.73;;;10.40;;
9970;SDS011;5026;51.494;11.974;2023-05-07T02:09:21;16.47;;;10.40;;
9970;SDS011;5026;51.494;11.974;2023-05-07T02:11:48;16.07;;;10.30;;
9970;SDS011;5026;51.494;11.974;2023-05-07T02:14:17;15.47;;;10.03;;
9970;SDS011;5026;51.494;11.974;2023-05-07T02:16:45;14.57;;;9.93;;
9970;SDS011;5026;51.494;11.974;2023-05-07T02:19:12;14.30;;;10.00;;
9970;SDS011;5026;51.494;11.974;2023-05-07T02:21:39;15.77;;;9.83;;
9970;SDS011;5026;51.494;11.974;2023-05-07T02:24:06;15.63;;;9.83;;
9970;SDS011;5026;51.494;11.974;2023-05-07T02:26:33;15.30;;;10.77;;
9970;SDS011;5026;51.494;11.974;2023-05-07T02:29:00;13.63;;;9.57;;
9970;SDS011;5026;51.494;11.974;2023-05-07T02:31:28;14.07;;;9.80;;
9970;SDS011;5026;51.494;11.974;2023-05-07T02:33:55;14.57;;;11.10;;
9970;SDS011;5026;51.494;11.974;2023-05-07T02:36:22;16.60;;;9.73;;
9970;SDS011;5026;51.494;11.974;2023-05-07T02:38:49;13.10;;;9.87;;
9970;SDS011;5026;51.494;11.974;2023-05-07T02:41:16;13.57;;;9.90;;
9970;SDS011;5026;51.494;11.974;2023-05-07T02:43:43;12.93;;;9.83;;
9970;SDS011;5026;51.494;11.974;2023-05-07T02:46:10;15.30;;;9.90;;
9970;SDS011;5026;51.494;11.974;2023-05-07T02:48:38;14.00;;;9.23;;
9970;SDS011;5026;51.494;11.974;2023-05-07T02:51:05;14.60;;;10.00;;
9970;SDS011;5026;51.494;11.974;2023-05-07T02:53:32;14.00;;;9.90;;
9970;SDS011;5026;51.494;11.974;2023-05-07T02:56:00;14.03;;;10.37;;
9970;SDS011;5026;51.494;11.974;2023-05-07T02:58:27;15.83;;;9.77;;
9970;SDS011;5026;51.494;11.974;2023-05-07T03:00:54;14.00;;;10.80;;
9970;SDS011;5026;51.494;11.974;2023-05-07T03:03:21;15.10;;;11.40;;
9970;SDS011;5026;51.494;11.974;2023-05-07T03:05:50;17.13;;;11.27;;
9970;SDS011;5026;51.494;11.974;2023-05-07T03:08:17;15.57;;;11.13;;
9970;SDS011;5026;51.494;11.974;2023-05-07T03:10:44;14.67;;;10.67;;
9970;SDS011;5026;51.494;11.974;2023-05-07T03:13:11;15.00;;;10.97;;
9970;SDS011;5026;51.494;11.974;2023-05-07T03:15:38;17.17;;;12.50;;
9970;SDS011;5026;51.494;11.974;2023-05-07T03:18:05;16.73;;;11.73;;
9970;SDS011;5026;51.494;11.974;2023-05-07T03:20:32;18.37;;;12.17;;
9970;SDS011;5026;51.494;11.974;2023-05-07T03:23:00;18.67;;;12.33;;
9970;SDS011;5026;51.494;11.974;2023-05-07T03:25:27;17.40;;;12.23;;
9970;SDS011;5026;51.494;11.974;2023-05-07T03:27:55;20.90;;;13.37;;
9970;SDS011;5026;51.494;11.974;2023-05-07T03:30:22;19.40;;;13.70;;
9970;SDS011;5026;51.494;11.974;2023-05-07T03:32:49;19.07;;;13.43;;
9970;SDS011;5026;51.494;11.974;2023-05-07T03:35:16;19.30;;;13.53;;
9970;SDS011;5026;51.494;11.974;2023-05-07T03:37:43;21.10;;;14.03;;
9970;SDS011;5026;51.494;11.974;2023-05-07T03:40:12;20.20;;;13.53;;
9970;SDS011;5026;51.494;11.974;2023-05-07T03:42:39;21.60;;;14.57;;
9970;SDS011;5026;51.494;11.974;2023-05-07T03:45:06;19.60;;;13.27;;
9970;SDS011;5026;51.494;11.974;2023-05-07T03:47:34;22.17;;;14.70;;
9970;SDS011;5026;51.494;11.974;2023-05-07T03:50:01;21.47;;;14.73;;
9970;SDS011;5026;51.494;11.974;2023-05-07T03:52:28;19.43;;;13.17;;
9970;SDS011;5026;51.494;11.974;2023-05-07T03:54:55;22.60;;;14.37;;
9970;SDS011;5026;51.494;11.974;2023-05-07T03:57:24;20.87;;;14.50;;
9970;SDS011;5026;51.494;11.974;2023-05-07T03:59:51;22.30;;;13.73;;
9970;SDS011;5026;51.494;11.974;2023-05-07T04:02:18;20.77;;;14.27;;
9970;SDS011;5026;51.494;11.974;2023-05-07T04:04:45;22.23;;;13.80;;
9970;SDS011;5026;51.494;11.974;2023-05-07T04:07:12;23.13;;;14.73;;
9970;SDS011;5026;51.494;11.974;2023-05-07T04:09:38;21.40;;;14.10;;
9970;SDS011;5026;51.494;11.974;2023-05-07T04:12:06;23.47;;;14.93;;
9970;SDS011;5026;51.494;11.974;2023-05-07T04:14:34;21.90;;;14.43;;
9970;SDS011;5026;51.494;11.974;2023-05-07T04:17:01;22.53;;;16.27;;
9970;SDS011;5026;51.494;11.974;2023-05-07T04:19:28;23.70;;;16.80;;
9970;SDS011;5026;51.494;11.974;2023-05-07T04:21:55;23.90;;;15.80;;
9970;SDS011;5026;51.494;11.974;2023-05-07T04:24:22;24.47;;;17.07;;
9970;SDS011;5026;51.494;11.974;2023-05-07T04:26:49;23.70;;;15.87;;
9970;SDS011;5026;51.494;11.974;2023-05-07T04:29:17;23.67;;;14.80;;
9970;SDS011;5026;51.494;11.974;2023-05-07T04:31:46;21.47;;;14.90;;
9970;SDS011;5026;51.494;11.974;2023-05-07T04:34:12;22.90;;;15.30;;
9970;SDS011;5026;51.494;11.974;2023-05-07T04:36:39;25.60;;;17.13;;
9970;SDS011;5026;51.494;11.974;2023-05-07T04:39:06;27.43;;;17.03;;
9970;SDS011;5026;51.494;11.974;2023-05-07T04:41:35;25.60;;;15.97;;
9970;SDS011;5026;51.494;11.974;2023-05-07T04:44:02;30.03;;;17.57;;
9970;SDS011;5026;51.494;11.974;2023-05-07T04:46:31;25.03;;;16.27;;
9970;SDS011;5026;51.494;11.974;2023-05-07T04:48:59;27.93;;;15.80;;
9970;SDS011;5026;51.494;11.974;2023-05-07T04:51:26;26.07;;;18.60;;
9970;SDS011;5026;51.494;11.974;2023-05-07T04:53:53;27.00;;;17.13;;
9970;SDS011;5026;51.494;11.974;2023-05-07T04:56:20;25.57;;;17.00;;
9970;SDS011;5026;51.494;11.974;2023-05-07T04:58:47;29.90;;;18.30;;
9970;SDS011;5026;51.494;11.974;2023-05-07T05:01:14;24.87;;;17.40;;
9970;SDS011;5026;51.494;11.974;2023-05-07T05:03:41;29.53;;;17.63;;
9970;SDS011;5026;51.494;11.974;2023-05-07T05:06:09;27.83;;;17.70;;
9970;SDS011;5026;51.494;11.974;2023-05-07T05:08:36;28.30;;;18.00;;
9970;SDS011;5026;51.494;11.974;2023-05-07T05:11:03;25.43;;;17.20;;
9970;SDS011;5026;51.494;11.974;2023-05-07T05:13:30;24.60;;;16.67;;
9970;SDS011;5026;51.494;11.974;2023-05-07T05:15:57;26.10;;;16.60;;
9970;SDS011;5026;51.494;11.974;2023-05-07T05:18:24;24.37;;;16.97;;
9970;SDS011;5026;51.494;11.974;2023-05-07T05:20:51;23.83;;;15.87;;
9970;SDS011;5026;51.494;11.974;2023-05-07T05:23:19;24.40;;;16.60;;
9970;SDS011;5026;51.494;11.974;2023-05-07T05:25:46;27.13;;;16.53;;
9970;SDS011;5026;51.494;11.974;2023-05-07T05:28:13;23.97;;;15.87;;
9970;SDS011;5026;51.494;11.974;2023-05-07T05:30:40;22.33;;;16.07;;
9970;SDS011;5026;51.494;11.974;2023-05-07T05:33:07;22.07;;;14.87;;
9970;SDS011;5026;51.494;11.974;2023-05-07T05:35:34;21.90;;;15.37;;
9970;SDS011;5026;51.494;11.974;2023-05-07T05:38:01;25.00;;;17.33;;
9970;SDS011;5026;51.494;11.974;2023-05-07T05:40:29;24.17;;;15.53;;
9970;SDS011;5026;51.494;11.974;2023-05-07T05:42:57;24.03;;;14.17;;
9970;SDS011;5026;51.494;11.974;2023-05-07T05:45:23;21.20;;;14.90;;
9970;SDS011;5026;51.494;11.974;2023-05-07T05:47:51;21.87;;;14.40;;
9970;SDS011;5026;51.494;11.974;2023-05-07T05:50:17;22.30;;;14.53;;
9970;SDS011;5026;51.494;11.974;2023-05-07T05:52:44;21.73;;;14.37;;
9970;SDS011;5026;51.494;11.974;2023-05-07T05:55:12;22.10;;;14.13;;
9970;SDS011;5026;51.494;11.974;2023-05-07T05:57:40;20.50;;;14.77;;
9970;SDS011;5026;51.494;11.974;2023-05-07T06:00:08;21.27;;;13.73;;
9970;SDS011;5026;51.494;11.974;2023-05-07T06:02:35;22.37;;;13.70;;
9970;SDS011;5026;51.494;11.974;2023-05-07T06:05:03;18.83;;;13.60;;
9970;SDS011;5026;51.494;11.974;2023-05-07T06:07:30;20.60;;;13.83;;
9970;SDS011;5026;51.494;11.974;2023-05-07T06:09:57;18.30;;;13.40;;
9970;SDS011;5026;51.494;11.974;2023-05-07T06:12:24;17.97;;;13.67;;
9970;SDS011;5026;51.494;11.974;2023-05-07T06:14:53;19.17;;;14.53;;
9970;SDS011;5026;51.494;11.974;2023-05-07T06:17:19;17.87;;;12.87;;
9970;SDS011;5026;51.494;11.974;2023-05-07T06:19:46;18.20;;;13.07;;
9970;SDS011;5026;51.494;11.974;2023-05-07T06:22:13;18.87;;;13.80;;
9970;SDS011;5026;51.494;11.974;2023-05-07T06:24:40;18.27;;;12.07;;
9970;SDS011;5026;51.494;11.974;2023-05-07T06:27:08;18.00;;;12.63;;
9970;SDS011;5026;51.494;11.974;2023-05-07T06:29:34;14.60;;;10.83;;
9970;SDS011;5026;51.494;11.974;2023-05-07T06:32:09;13.03;;;11.10;;
9970;SDS011;5026;51.494;11.974;2023-05-07T06:34:37;16.47;;;10.77;;
9970;SDS011;5026;51.494;11.974;2023-05-07T06:37:05;12.00;;;9.90;;
9970;SDS011;5026;51.494;11.974;2023-05-07T06:39:32;14.10;;;9.17;;
9970;SDS011;5026;51.494;11.974;2023-05-07T06:41:59;13.80;;;9.73;;
9970;SDS011;5026;51.494;11.974;2023-05-07T06:44:27;12.23;;;10.00;;
9970;SDS011;5026;51.494;11.974;2023-05-07T06:46:53;12.70;;;10.10;;
9970;SDS011;5026;51.494;11.974;2023-05-07T06:49:22;13.97;;;9.83;;
9970;SDS011;5026;51.494;11.974;2023-05-07T06:51:49;12.57;;;10.27;;
9970;SDS011;5026;51.494;11.974;2023-05-07T06:54:16;14.23;;;9.43;;
9970;SDS011;5026;51.494;11.974;2023-05-07T06:56:42;12.97;;;9.97;;
9970;SDS011;5026;51.494;11.974;2023-05-07T06:59:10;10.40;;;9.00;;
9970;SDS011;5026;51.494;11.974;2023-05-07T07:01:37;12.30;;;10.53;;
9970;SDS011;5026;51.494;11.974;2023-05-07T07:04:03;11.20;;;9.00;;
9970;SDS011;5026;51.494;11.974;2023-05-07T07:06:32;10.87;;;9.20;;
9970;SDS011;5026;51.494;11.974;2023-05-07T07:08:59;11.23;;;8.57;;
9970;SDS011;5026;51.494;11.974;2023-05-07T07:11:26;9.73;;;8.07;;
9970;SDS011;5026;51.494;11.974;2023-05-07T07:13:53;11.23;;;9.10;;
9970;SDS011;5026;51.494;11.974;2023-05-07T07:16:20;9.37;;;7.97;;
9970;SDS011;5026;51.494;11.974;2023-05-07T07:18:47;12.43;;;9.17;;
9970;SDS011;5026;51.494;11.974;2023-05-07T07:21:14;11.37;;;8.77;;
9970;SDS011;5026;51.494;11.974;2023-05-07T07:23:42;14.33;;;9.37;;
9970;SDS011;5026;51.494;11.974;2023-05-07T07:26:09;12.73;;;10.07;;
9970;SDS011;5026;51.494;11.974;2023-05-07T07:28:41;13.73;;;10.90;;
9970;SDS011;5026;51.494;11.974;2023-05-07T07:31:09;15.53;;;10.97;;
9970;SDS011;5026;51.494;11.974;2023-05-07T07:33:36;13.83;;;11.33;;
9970;SDS011;5026;51.494;11.974;2023-05-07T07:36:03;14.67;;;10.90;;
9970;SDS011;5026;51.494;11.974;2023-05-07T07:38:31;14.97;;;10.70;;
9970;SDS011;5026;51.494;11.974;2023-05-07T07:40:59;15.63;;;11.33;;
9970;SDS011;5026;51.494;11.974;2023-05-07T07:43:26;15.50;;;11.80;;
9970;SDS011;5026;51.494;11.974;2023-05-07T07:45:53;15.17;;;11.53;;
9970;SDS011;5026;51.494;11.974;2023-05-07T07:48:20;13.30;;;10.47;;
9970;SDS011;5026;51.494;11.974;2023-05-07T07:50:48;16.50;;;11.60;;
9970;SDS011;5026;51.494;11.974;2023-05-07T07:53:15;15.47;;;10.93;;
9970;SDS011;5026;51.494;11.974;2023-05-07T07:55:42;15.47;;;11.57;;
9970;SDS011;5026;51.494;11.974;2023-05-07T07:58:10;13.43;;;10.60;;
9970;SDS011;5026;51.494;11.974;2023-05-07T08:00:37;11.40;;;9.10;;
9970;SDS011;5026;51.494;11.974;2023-05-07T08:03:04;12.07;;;9.33;;
9970;SDS011;5026;51.494;11.974;2023-05-07T08:05:32;12.37;;;9.20;;
9970;SDS011;5026;51.494;11.974;2023-05-07T08:07:59;11.50;;;9.03;;
9970;SDS011;5026;51.494;11.974;2023-05-07T08:10:26;12.10;;;9.10;;
9970;SDS011;5026;51.494;11.974;2023-05-07T08:12:53;12.10;;;8.47;;
9970;SDS011;5026;51.494;11.974;2023-05-07T08:15:21;11.13;;;9.20;;
9970;SDS011;5026;51.494;11.974;2023-05-07T08:17:48;10.93;;;9.03;;
9970;SDS011;5026;51.494;11.974;2023-05-07T08:20:15;9.80;;;7.57;;
9970;SDS011;5026;51.494;11.974;2023-05-07T08:22:42;8.50;;;7.60;;
9970;SDS011;5026;51.494;11.974;2023-05-07T08:25:09;8.60;;;7.70;;
9970;SDS011;5026;51.494;11.974;2023-05-07T08:27:36;8.60;;;7.70;;
9970;SDS011;5026;51.494;11.974;2023-05-07T08:30:03;8.73;;;7.83;;
9970;SDS011;5026;51.494;11.974;2023-05-07T08:32:32;9.07;;;7.47;;
9970;SDS011;5026;51.494;11.974;2023-05-07T08:34:59;8.37;;;7.47;;
9970;SDS011;5026;51.494;11.974;2023-05-07T08:37:26;10.40;;;7.93;;
9970;SDS011;5026;51.494;11.974;2023-05-07T08:39:53;7.93;;;7.00;;
9970;SDS011;5026;51.494;11.974;2023-05-07T08:42:20;8.17;;;7.07;;
9970;SDS011;5026;51.494;11.974;2023-05-07T08:44:51;7.43;;;6.70;;
9970;SDS011;5026;51.494;11.974;2023-05-07T08:47:19;10.73;;;7.40;;
9970;SDS011;5026;51.494;11.974;2023-05-07T08:49:50;8.17;;;7.20;;
9970;SDS011;5026;51.494;11.974;2023-05-07T08:52:18;8.00;;;6.27;;
9970;SDS011;5026;51.494;11.974;2023-05-07T08:54:45;7.63;;;5.73;;
9970;SDS011;5026;51.494;11.974;2023-05-07T08:57:12;7.93;;;6.40;;
9970;SDS011;5026;51.494;11.974;2023-05-07T08:59:39;6.57;;;5.97;;
9970;SDS011;5026;51.494;11.974;2023-05-07T09:02:07;7.53;;;6.30;;
9970;SDS011;5026;51.494;11.974;2023-05-07T09:04:36;8.20;;;6.10;;
9970;SDS011;5026;51.494;11.974;2023-05-07T09:07:05;5.67;;;5.10;;
9970;SDS011;5026;51.494;11.974;2023-05-07T09:09:32;8.77;;;6.40;;
9970;SDS011;5026;51.494;11.974;2023-05-07T09:11:59;7.50;;;6.80;;
9970;SDS011;5026;51.494;11.974;2023-05-07T09:14:27;8.17;;;6.30;;
9970;SDS011;5026;51.494;11.974;2023-05-07T09:16:55;8.40;;;7.40;;
9970;SDS011;5026;51.494;11.974;2023-05-07T09:19:25;8.97;;;6.57;;
9970;SDS011;5026;51.494;11.974;2023-05-07T09:21:57;8.30;;;7.10;;
9970;SDS011;5026;51.494;11.974;2023-05-07T09:24:27;8.60;;;6.93;;
9970;SDS011;5026;51.494;11.974;2023-05-07T09:26:57;8.27;;;7.40;;
9970;SDS011;5026;51.494;11.974;2023-05-07T09:29:25;8.67;;;7.27;;
9970;SDS011;5026;51.494;11.974;2023-05-07T09:31:53;8.37;;;6.30;;
9970;SDS011;5026;51.494;11.974;2023-05-07T09:34:21;7.07;;;6.37;;
9970;SDS011;5026;51.494;11.974;2023-05-07T09:36:48;8.53;;;7.60;;
9970;SDS011;5026;51.494;11.974;2023-05-07T09:39:16;11.40;;;8.07;;
9970;SDS011;5026;51.494;11.974;2023-05-07T09:41:44;9.20;;;7.27;;
9970;SDS011;5026;51.494;11.974;2023-05-07T09:44:12;8.57;;;6.70;;
9970;SDS011;5026;51.494;11.974;2023-05-07T09:46:41;11.33;;;9.20;;
9970;SDS011;5026;51.494;11.974;2023-05-07T09:49:11;13.37;;;9.40;;
9970;SDS011;5026;51.494;11.974;2023-05-07T09:51:45;15.00;;;11.03;;
9970;SDS011;5026;51.494;11.974;2023-05-07T09:54:15;14.77;;;12.47;;
9970;SDS011;5026;51.494;11.974;2023-05-07T09:56:43;14.57;;;11.20;;
9970;SDS011;5026;51.494;11.974;2023-05-07T09:59:12;14.87;;;10.73;;
9970;SDS011;5026;51.494;11.974;2023-05-07T10:01:40;16.23;;;11.57;;
9970;SDS011;5026;51.494;11.974;2023-05-07T10:04:09;16.17;;;10.60;;
9970;SDS011;5026;51.494;11.974;2023-05-07T10:06:37;12.83;;;10.07;;
9970;SDS011;5026;51.494;11.974;2023-05-07T10:09:04;13.23;;;9.93;;
9970;SDS011;5026;51.494;11.974;2023-05-07T10:11:32;14.53;;;10.83;;
9970;SDS011;5026;51.494;11.974;2023-05-07T10:14:01;14.70;;;10.17;;
9970;SDS011;5026;51.494;11.974;2023-05-07T10:16:30;11.00;;;8.77;;
9970;SDS011;5026;51.494;11.974;2023-05-07T10:19:01;13.67;;;9.57;;
9970;SDS011;5026;51.494;11.974;2023-05-07T10:21:29;10.97;;;8.60;;
9970;SDS011;5026;51.494;11.974;2023-05-07T10:23:58;11.37;;;8.87;;
9970;SDS011;5026;51.494;11.974;2023-05-07T10:26:27;11.17;;;9.63;;
9970;SDS011;5026;51.494;11.974;2023-05-07T10:28:58;12.63;;;9.30;;
9970;SDS011;5026;51.494;11.974;2023-05-07T10:31:39;12.43;;;9.73;;
9970;SDS011;5026;51.494;11.974;2023-05-07T10:34:18;14.17;;;10.33;;
9970;SDS011;5026;51.494;11.974;2023-05-07T10:36:49;11.73;;;9.67;;
9970;SDS011;5026;51.494;11.974;2023-05-07T10:39:17;12.80;;;10.57;;
9970;SDS011;5026;51.494;11.974;2023-05-07T10:41:45;12.27;;;9.77;;
9970;SDS011;5026;51.494;11.974;2023-05-07T10:44:25;13.17;;;9.97;;
9970;SDS011;5026;51.494;11.974;2023-05-07T10:47:03;16.43;;;12.03;;
9970;SDS011;5026;51.494;11.974;2023-05-07T10:49:33;15.07;;;9.87;;
9970;SDS011;5026;51.494;11.974;2023-05-07T10:54:46;13.07;;;10.10;;
9970;SDS011;5026;51.494;11.974;2023-05-07T11:00:03;14.97;;;10.83;;
9970;SDS011;5026;51.494;11.974;2023-05-07T11:03:04;15.57;;;11.67;;
9970;SDS011;5026;51.494;11.974;2023-05-07T11:05:32;16.90;;;11.97;;
9970;SDS011;5026;51.494;11.974;2023-05-07T11:08:00;13.07;;;11.00;;
9970;SDS011;5026;51.494;11.974;2023-05-07T11:13:16;12.00;;;10.33;;
9970;SDS011;5026;51.494;11.974;2023-05-07T11:15:46;11.57;;;9.40;;
9970;SDS011;5026;51.494;11.974;2023-05-07T11:18:14;12.87;;;9.20;;
9970;SDS011;5026;51.494;11.974;2023-05-07T11:20:53;10.10;;;7.97;;
9970;SDS011;5026;51.494;11.974;2023-05-07T11:26:22;15.30;;;9.03;;
9970;SDS011;5026;51.494;11.974;2023-05-07T11:28:50;10.30;;;8.00;;
9970;SDS011;5026;51.494;11.974;2023-05-07T11:31:22;10.10;;;7.87;;
9970;SDS011;5026;51.494;11.974;2023-05-07T11:33:51;10.97;;;9.07;;
9970;SDS011;5026;51.494;11.974;2023-05-07T11:36:19;11.40;;;9.67;;
9970;SDS011;5026;51.494;11.974;2023-05-07T11:38:46;12.37;;;10.20;;
9970;SDS011;5026;51.494;11.974;2023-05-07T11:41:13;11.80;;;10.07;;
9970;SDS011;5026;51.494;11.974;2023-05-07T11:43:55;10.77;;;8.67;;
9970;SDS011;5026;51.494;11.974;2023-05-07T11:46:24;11.40;;;8.43;;
9970;SDS011;5026;51.494;11.974;2023-05-07T11:48:52;9.87;;;8.23;;
9970;SDS011;5026;51.494;11.974;2023-05-07T11:51:20;9.50;;;8.50;;
9970;SDS011;5026;51.494;11.974;2023-05-07T11:53:48;10.33;;;8.03;;
9970;SDS011;5026;51.494;11.974;2023-05-07T11:56:16;12.73;;;10.77;;
9970;SDS011;5026;51.494;11.974;2023-05-07T11:58:45;13.73;;;12.33;;
9970;SDS011;5026;51.494;11.974;2023-05-07T12:01:13;13.50;;;10.97;;
9970;SDS011;5026;51.494;11.974;2023-05-07T12:03:43;11.53;;;9.83;;
9970;SDS011;5026;51.494;11.974;2023-05-07T12:06:11;11.47;;;9.27;;
9970;SDS011;5026;51.494;11.974;2023-05-07T12:08:39;10.40;;;9.30;;
9970;SDS011;5026;51.494;11.974;2023-05-07T12:11:08;11.43;;;9.07;;
9970;SDS011;5026;51.494;11.974;2023-05-07T12:13:36;12.30;;;8.00;;
9970;SDS011;5026;51.494;11.974;2023-05-07T12:16:05;9.20;;;7.67;;
9970;SDS011;5026;51.494;11.974;2023-05-07T12:18:33;8.03;;;6.90;;
9970;SDS011;5026;51.494;11.974;2023-05-07T12:21:02;7.80;;;6.50;;
9970;SDS011;5026;51.494;11.974;2023-05-07T12:23:31;7.67;;;5.87;;
9970;SDS011;5026;51.494;11.974;2023-05-07T12:25:59;6.77;;;6.07;;
9970;SDS011;5026;51.494;11.974;2023-05-07T12:28:26;8.17;;;6.40;;
9970;SDS011;5026;51.494;11.974;2023-05-07T12:30:53;6.70;;;6.10;;
9970;SDS011;5026;51.494;11.974;2023-05-07T12:33:23;6.60;;;5.90;;
9970;SDS011;5026;51.494;11.974;2023-05-07T12:35:53;7.00;;;6.30;;
9970;SDS011;5026;51.494;11.974;2023-05-07T12:38:22;6.80;;;6.10;;
9970;SDS011;5026;51.494;11.974;2023-05-07T12:40:50;7.23;;;6.43;;
9970;SDS011;5026;51.494;11.974;2023-05-07T12:43:20;10.00;;;8.60;;
9970;SDS011;5026;51.494;11.974;2023-05-07T12:45:50;11.00;;;8.43;;
9970;SDS011;5026;51.494;11.974;2023-05-07T12:48:20;8.40;;;7.33;;
9970;SDS011;5026;51.494;11.974;2023-05-07T12:50:49;10.00;;;8.83;;
9970;SDS011;5026;51.494;11.974;2023-05-07T12:53:16;11.30;;;8.73;;
9970;SDS011;5026;51.494;11.974;2023-05-07T12:55:48;10.87;;;9.17;;
9970;SDS011;5026;51.494;11.974;2023-05-07T12:58:16;11.63;;;9.17;;
9970;SDS011;5026;51.494;11.974;2023-05-07T13:00:44;12.77;;;8.83;;
9970;SDS011;5026;51.494;11.974;2023-05-07T13:03:20;12.13;;;10.13;;
9970;SDS011;5026;51.494;11.974;2023-05-07T13:05:48;11.97;;;10.00;;
9970;SDS011;5026;51.494;11.974;2023-05-07T13:08:23;12.97;;;9.47;;
9970;SDS011;5026;51.494;11.974;2023-05-07T13:10:52;10.60;;;8.93;;
9970;SDS011;5026;51.494;11.974;2023-05-07T13:13:19;9.02;;;7.55;;
9970;SDS011;5026;51.494;11.974;2023-05-07T13:15:46;9.77;;;8.27;;
9970;SDS011;5026;51.494;11.974;2023-05-07T13:18:13;8.60;;;7.35;;
9970;SDS011;5026;51.494;11.974;2023-05-07T13:20:40;9.27;;;6.68;;
9970;SDS011;5026;51.494;11.974;2023-05-07T13:23:07;7.72;;;7.00;;
9970;SDS011;5026;51.494;11.974;2023-05-07T13:25:34;9.07;;;7.40;;
9970;SDS011;5026;51.494;11.974;2023-05-07T13:28:03;8.60;;;7.70;;
9970;SDS011;5026;51.494;11.974;2023-05-07T13:30:30;8.57;;;6.87;;
9970;SDS011;5026;51.494;11.974;2023-05-07T13:32:57;9.90;;;6.80;;
9970;SDS011;5026;51.494;11.974;2023-05-07T13:35:24;7.53;;;6.60;;
9970;SDS011;5026;51.494;11.974;2023-05-07T13:37:51;6.33;;;5.53;;
9970;SDS011;5026;51.494;11.974;2023-05-07T13:40:19;7.57;;;5.50;;
9970;SDS011;5026;51.494;11.974;2023-05-07T13:42:46;6.00;;;5.20;;
9970;SDS011;5026;51.494;11.974;2023-05-07T13:45:15;6.03;;;5.03;;
9970;SDS011;5026;51.494;11.974;2023-05-07T13:47:42;5.32;;;4.47;;
9970;SDS011;5026;51.494;11.974;2023-05-07T13:50:10;5.03;;;4.53;;
9970;SDS011;5026;51.494;11.974;2023-05-07T13:52:40;5.50;;;4.40;;
9970;SDS011;5026;51.494;11.974;2023-05-07T13:55:08;6.18;;;4.95;;
9970;SDS011;5026;51.494;11.974;2023-05-07T13:57:36;10.30;;;5.55;;
9970;SDS011;5026;51.494;11.974;2023-05-07T14:00:03;5.25;;;4.72;;
9970;SDS011;5026;51.494;11.974;2023-05-07T14:02:32;5.10;;;4.60;;
9970;SDS011;5026;51.494;11.974;2023-05-07T14:04:59;4.78;;;4.28;;
9970;SDS011;5026;51.494;11.974;2023-05-07T14:07:26;5.40;;;4.90;;
9970;SDS011;5026;51.494;11.974;2023-05-07T14:09:53;5.20;;;4.70;;
9970;SDS011;5026;51.494;11.974;2023-05-07T14:12:21;4.47;;;3.88;;
9970;SDS011;5026;51.494;11.974;2023-05-07T14:14:48;4.20;;;3.80;;
9970;SDS011;5026;51.494;11.974;2023-05-07T14:17:16;4.55;;;3.85;;
9970;SDS011;5026;51.494;11.974;2023-05-07T14:19:44;4.93;;;4.30;;
9970;SDS011;5026;51.494;11.974;2023-05-07T14:22:12;6.15;;;5.50;;
9970;SDS011;5026;51.494;11.974;2023-05-07T14:24:40;6.20;;;5.30;;
9970;SDS011;5026;51.494;11.974;2023-05-07T14:27:07;6.60;;;5.67;;
9970;SDS011;5026;51.494;11.974;2023-05-07T14:29:34;5.90;;;5.28;;
9970;SDS011;5026;51.494;11.974;2023-05-07T14:32:01;5.65;;;5.13;;
9970;SDS011;5026;51.494;11.974;2023-05-07T14:34:29;6.53;;;4.57;;
9970;SDS011;5026;51.494;11.974;2023-05-07T14:36:57;5.20;;;4.70;;
9970;SDS011;5026;51.494;11.974;2023-05-07T14:39:26;4.65;;;4.22;;
9970;SDS011;5026;51.494;11.974;2023-05-07T14:41:53;5.47;;;4.57;;
9970;SDS011;5026;51.494;11.974;2023-05-07T14:44:21;4.60;;;3.80;;
9970;SDS011;5026;51.494;11.974;2023-05-07T14:46:47;5.10;;;4.65;;
9970;SDS011;5026;51.494;11.974;2023-05-07T14:49:15;4.43;;;3.83;;
9970;SDS011;5026;51.494;11.974;2023-05-07T14:51:43;4.30;;;3.90;;
9970;SDS011;5026;51.494;11.974;2023-05-07T14:54:13;4.40;;;4.00;;
9970;SDS011;5026;51.494;11.974;2023-05-07T14:56:40;4.20;;;3.80;;
9970;SDS011;5026;51.494;11.974;2023-05-07T14:59:08;4.53;;;3.90;;